Pagina principală
METAR-TAF:

METAR-TAF

Aeroporturi :

Rota, Insulele Mariane, Statele Unite ale Americii

Latitudine: 14-11N, longitudine: 145-15E, elevație: 185 m

Observații meteo curente

Raportul a fost făcut în urmă cu 4 ore și 25 de minute, la 07:50 UTC
Vânt 10 kt de la Est
Temperatură 27°C
Umiditate 79%
Presiune 1009 hPa
Vizibilitate: 11.3 km
Nori împrăștiați la o înălțime de 1500 picior
Nori împrăștiați la o înălțime de 10000 picior

METAR: PGRO 280750Z 10010KT 7SM SCT015 SCT100 27/23 A2981 RMK LAST

Ora: 22:15 (12:15 UTC)

Prognoză

Raportul a fost făcut în urmă cu 6 ore și 53 de minute, la 05:22 UTC
Prognoză valabilă de la 28 ora 06 UTC la 29 ora 06 UTC
Vânt 11 kt de la Est
Vizibilitate: 10 km
Nori împrăștiați la o înălțime de 1600 picior
Nori împrăștiați la o înălțime de 5000 picior
averse în apropiere

TAF: PGRO 280522Z 2806/2906 09011KT P6SM VCSH SCT016 SCT050

Observații și prognoze meteo pentru peste 4.000 de aeroporturi (rapoarte METAR și TAF).

Stațiile disponibile sunt reprezentate pe hartă prin puncte galbene și roșii.

Țineți indicatorul mouse-ului pe punctul dorit pentru a vedea denumirea stației.

Apoi, faceți clic pentru a vedea observațiile și prognozele meteorologice.

Pentru a schimba harta: Pentru mărire, faceți clic pe butoanele verzi cu cruce neagră; pentru micșorare, pe butonul verde cu o liniuță; pentru hărți învecinate, pe săgețile verzi.


METAR-TAF: